Mildmay, Canada
Current Conditions -  °F | °C
As of 2:00 AM on Thursday 18 Dec 2014 (Local Time) from CYVV Reporting Station
Light Snow Light Snow  
Wind Chill: 19°   Ceiling: 1200
Heat Index: 27°   Visibility: 15mi
Dew Point: 23°   Wind: 7mph
Humidity: 86%   Direction: 320°NW
Pressure: 30.02"   Gusts: NA
Location:  44.03°N, 81.12°W
Report Text: CYVV 180700Z 32006KT 15SM -SN OVC012 M03/M05 A3002 RMK ST8 SLP177
Loading
Personal Weather Stations






























Interactive Weather Map New forecast layout! Learn more

10-Day Weather Forecast

Advertisements
Track Severe Weather on mobile